aeroflot

Отчет

Рейс № DNV6355R, по маршруту URMM - UATE, борт IL18 - RA-75598

Время выполнения по расписанию: 06:25 - 08:25
Фактическое время выполнения:    06:23 - 07:45

Пройдено расстояние: 642км и затрачено топлива: 3574кг.

Перевезено 120 пассажиров и 3500кг груза.

Посадка совершена со скоростью 211 км/ч и вертикальной -0.66 м/с

Нарушения:

Высокая перегрузка (более 1,5g) 2.28g

Контроль: ВАК Контролёр

Разбор полетов

yate373
UATE 191930Z 01002MPS 9000 -SHSN BKN013CB OVC036 M03/M03 Q1018 R30/590540 NOSIG RMK QFE762/1016



Follow donaviava on Twitter
Последние новости
31 декабря 2017 г.

2018 - Всех пилотов с Новым 2018 годом! Мягких посадок и попутного ветра.

7 декабря 2017 г.

7 декабря 2017г. - Начал работу новый аэропорт Ростова-на-Дону - Платов.
Старый аэропорт закрыт.

7 декабря 2017 г.

7 декабря - Международный День Гражданской Авиации.

Партнёры
vatrus vatsim
123124398 vk765465